Fullerton, CA (92831)

12:02 PM PST on February 08, 2016 (GMT -0800)
APRSWXNET | | Change Station
CLOSE
Current Station
Personal Weather Station
Location: Fullerton, CA
Elevation: 213 ft
Nearby Weather Stations

Elev 213 ft 33.90 °N, 117.90 °W | Updated 23 minutes ago

Clear
Clear
87 °F
Feels Like 83 °F
N
3
Wind Variable Wind from SE
Gusts 15.0 mph

Today
High -- | Low -- °F
--% Chance of Precip.
Yesterday
High -- | Low -- °F
Precip. -- in
Pressure 30.11 in
Visibility 10.0 miles
Clouds Clear
Heat Index 83 °F
Dew Point 28 °F
Humidity 12%
Rainfall in
Snow Depth Not available.
6:43 AM 5:28 PM
New Moon, 0% visible
METAR KFUL 081953Z 09020G27KT 10SM CLR 31/M06 A3011 RMK AO2 PK WND 09028/1934 SLP194 T03061061
Pressure 30.11 in
Visibility 10.0 miles
Clouds Clear
Heat Index 83 °F
Dew Point 28 °F
Humidity 12%
Rainfall in
Snow Depth Not available.
6:43 AM 5:28 PM
New Moon, 0% visible
METAR KFUL 081953Z 09020G27KT 10SM CLR 31/M06 A3011 RMK AO2 PK WND 09028/1934 SLP194 T03061061

10-Day Weather Forecast

Almanac

Astronomy

Feb. 08, 2016 Rise Set
Actual Time
Civil Twilight
Nautical Twilight
Astronomical Twilight
Moon
Length of Visible Light
Length of Day
Tomorrow will be .
, % of the Moon is Illuminated

Today's Extremes

State Highs State Lows

Community

WunderPhotos

Upload Photos

1,891,503 photos uploaded!

WunderBlog® & News

Nearby

Air Quality

  Air Quality AQ Index Pollutant
Not available.

Snow Depth

Station Depth Elevation

Earthquake Activity

City Distance Mag. Time & Date
Minimum magnitude displayed is 2.5.

Coastal Water Temperatures

Place Temperature

Stations

Nearby Weather Stations

Station Location Temp. Windchill Dew Point Humidity Wind Precip. Elev Updated Type
                   

Watches & Warnings

High Wind Warning
Issued: 8:03 AM PST Feb. 8, 2016 – National Weather Service

... High Wind Warning remains in effect until 2 PM PST this
afternoon...

* winds... areas of northeast winds 20 to 30 mph with gusts to 55
mph.

* Timing... strongest winds this morning... then decreasing during
the afternoon.

* Location... along coastal mountain slopes and adjacent foothill
areas.

* Visibility... locally reduced in blowing dust.

* Impacts... strong cross winds will be a potential hazard for
high profile vehicles. Broken tree limbs and other unsecured
yard and construction site debris may be blown about and
impede traffic on roadways.

* Outlook... periods of gusty northeast winds will continue into
Tuesday.

Precautionary/preparedness actions...

A High Wind Warning means a hazardous high wind event is expected
or occurring. Sustained wind speeds of at least 40 mph or gusts
of 58 mph or more can lead to property damage.